createdAt,value
2023-02-11T00:03:42.337Z,11.88
2023-02-11T00:08:44.168Z,11.93
2023-02-11T00:13:46.289Z,11.43
2023-02-11T00:18:48.771Z,13.25
2023-02-11T00:23:50.452Z,12.02
2023-02-11T00:28:52.723Z,11.02
2023-02-11T00:33:54.541Z,12.63
2023-02-11T00:38:57.299Z,11.52
2023-02-11T00:43:59.714Z,10.27
2023-02-11T00:49:04.153Z,10.05
2023-02-11T00:54:06.085Z,12.10
2023-02-11T00:59:07.713Z,13.43
2023-02-11T01:04:09.356Z,11.65
2023-02-11T01:09:10.936Z,12.95
2023-02-11T01:14:12.546Z,14.15
2023-02-11T01:19:14.247Z,11.55
2023-02-11T01:24:15.860Z,11.55
2023-02-11T01:29:19.371Z,11.52
2023-02-11T01:34:21.008Z,12.02
2023-02-11T01:39:22.617Z,11.20
2023-02-11T01:44:25.848Z,13.98
2023-02-11T01:49:30.935Z,11.75
2023-02-11T01:54:58.234Z,11.05
2023-02-11T02:00:18.039Z,12.30
2023-02-11T02:05:36.983Z,13.52
2023-02-11T02:10:41.470Z,12.85
2023-02-11T02:16:09.243Z,14.65
2023-02-11T02:21:36.522Z,14.65
2023-02-11T02:26:52.078Z,12.05
2023-02-11T02:32:12.458Z,13.18
2023-02-11T02:37:55.147Z,13.60
2023-02-11T02:42:57.897Z,12.10
2023-02-11T02:47:59.546Z,11.50
2023-02-11T02:53:26.787Z,12.68
2023-02-11T02:59:04.312Z,11.63
2023-02-11T03:04:22.997Z,13.52
2023-02-11T03:09:46.174Z,12.00
2023-02-11T03:14:50.199Z,12.07
2023-02-11T03:19:51.864Z,13.98
2023-02-11T03:24:54.050Z,12.63
2023-02-11T03:30:06.680Z,13.90
2023-02-11T03:35:15.746Z,11.05
2023-02-11T03:40:21.852Z,15.32
2023-02-11T03:45:24.626Z,12.32
2023-02-11T03:50:27.265Z,15.07
2023-02-11T03:55:29.874Z,12.38
2023-02-11T04:00:33.507Z,13.90
2023-02-11T04:05:35.143Z,12.02
2023-02-11T04:10:36.820Z,12.50
2023-02-11T04:15:38.545Z,13.02
2023-02-11T04:20:40.136Z,12.65
2023-02-11T04:25:42.605Z,13.43
2023-02-11T04:30:44.411Z,12.95
2023-02-11T04:35:46.096Z,14.00
2023-02-11T04:40:47.690Z,12.75
2023-02-11T04:45:49.655Z,11.52
2023-02-11T04:50:53.050Z,13.35
2023-02-11T04:55:54.658Z,12.43
2023-02-11T05:00:56.355Z,13.15
2023-02-11T05:05:58.034Z,14.05
2023-02-11T05:10:59.754Z,16.30
2023-02-11T05:16:01.417Z,15.90
2023-02-11T05:21:09.694Z,13.20
2023-02-11T05:26:11.980Z,15.80
2023-02-11T05:31:14.860Z,15.00
2023-02-11T05:36:16.947Z,14.32
2023-02-11T05:41:19.244Z,15.60
2023-02-11T05:46:20.926Z,14.38
2023-02-11T05:51:22.921Z,14.13
2023-02-11T05:56:24.512Z,14.85
2023-02-11T06:01:26.520Z,16.35
2023-02-11T06:06:28.218Z,16.67
2023-02-11T06:11:29.895Z,16.98
2023-02-11T06:16:31.540Z,13.68
2023-02-11T06:21:43.224Z,17.63
2023-02-11T06:26:45.947Z,14.13
2023-02-11T06:31:47.801Z,16.25
2023-02-11T06:36:49.456Z,13.85
2023-02-11T06:41:51.104Z,13.68
2023-02-11T06:46:52.845Z,16.05
2023-02-11T06:51:54.517Z,13.90
2023-02-11T06:56:56.092Z,14.45
2023-02-11T07:01:57.840Z,14.35
2023-02-11T07:06:59.530Z,13.77
2023-02-11T07:12:01.158Z,15.73
2023-02-11T07:17:04.857Z,16.38
2023-02-11T07:22:06.552Z,15.02
2023-02-11T07:27:08.186Z,14.88
2023-02-11T07:32:10.221Z,14.95
2023-02-11T07:37:11.887Z,16.73
2023-02-11T07:42:13.629Z,14.95
2023-02-11T07:47:15.720Z,14.27
2023-02-11T07:52:17.722Z,17.45
2023-02-11T07:57:19.441Z,16.25
2023-02-11T08:02:21.103Z,17.02
2023-02-11T08:07:22.813Z,16.30
2023-02-11T08:12:24.426Z,17.48
2023-02-11T08:17:26.090Z,15.70
2023-02-11T08:22:27.743Z,14.02
2023-02-11T08:27:29.442Z,15.73
2023-02-11T08:32:31.128Z,13.80
2023-02-11T08:37:33.191Z,13.70
2023-02-11T08:42:34.872Z,14.43
2023-02-11T08:47:37.101Z,13.75
2023-02-11T08:52:38.757Z,13.48
2023-02-11T08:57:40.359Z,15.20
2023-02-11T09:02:42.057Z,15.07
2023-02-11T09:07:43.816Z,13.32
2023-02-11T09:12:45.455Z,14.85
2023-02-11T09:17:47.058Z,13.05
2023-02-11T09:22:48.718Z,12.80
2023-02-11T09:27:51.392Z,14.52
2023-02-11T09:32:52.993Z,13.68
2023-02-11T09:37:54.727Z,14.32
2023-02-11T09:43:14.697Z,14.70
2023-02-11T09:48:19.274Z,16.38
2023-02-11T09:53:26.210Z,16.05
2023-02-11T09:58:36.107Z,14.18
2023-02-11T10:03:49.809Z,14.57
2023-02-11T10:09:09.580Z,15.18
2023-02-11T10:14:38.091Z,13.82
2023-02-11T10:20:03.424Z,15.32
2023-02-11T10:25:28.157Z,14.35
2023-02-11T10:30:37.390Z,14.77
2023-02-11T10:35:39.116Z,14.13
2023-02-11T10:40:40.938Z,13.82
2023-02-11T10:45:45.424Z,13.98
2023-02-11T10:50:47.054Z,13.95
2023-02-11T10:55:54.407Z,14.90
2023-02-11T11:00:57.336Z,13.82
2023-02-11T11:06:01.260Z,16.65
2023-02-11T11:11:09.015Z,14.23
2023-02-11T11:16:13.774Z,15.73
2023-02-11T11:21:21.763Z,12.88
2023-02-11T11:26:25.995Z,12.68
2023-02-11T11:31:37.902Z,12.48
2023-02-11T11:36:40.295Z,13.43
2023-02-11T11:41:51.374Z,14.77
2023-02-11T11:47:41.390Z,12.30
2023-02-11T11:52:51.025Z,13.23
2023-02-11T11:57:52.869Z,13.95
2023-02-11T12:03:23.945Z,12.60
2023-02-11T12:08:44.047Z,12.52
2023-02-11T12:14:07.361Z,11.65
2023-02-11T12:19:43.177Z,14.45
2023-02-11T12:25:00.173Z,13.20
2023-02-11T12:30:10.778Z,12.57
2023-02-11T12:35:32.779Z,12.73
2023-02-11T12:40:46.569Z,14.32
2023-02-11T12:46:10.120Z,11.57
2023-02-11T12:51:20.943Z,14.30
2023-02-11T12:56:32.212Z,13.25
2023-02-11T13:01:39.989Z,12.10
2023-02-11T13:07:02.300Z,12.23
2023-02-11T13:12:24.692Z,15.27
2023-02-11T13:17:32.399Z,14.25
2023-02-11T13:22:44.694Z,11.98
2023-02-11T13:28:08.106Z,11.93
2023-02-11T13:33:15.610Z,14.93
2023-02-11T13:38:18.124Z,11.15
2023-02-11T13:43:24.924Z,13.45
2023-02-11T13:53:29.567Z,10.75
2023-02-11T13:58:31.131Z,11.32
2023-02-11T14:03:56.578Z,11.60
2023-02-11T14:09:18.435Z,11.45
2023-02-11T14:14:33.912Z,12.50
2023-02-11T14:19:38.011Z,12.38
2023-02-11T14:24:51.135Z,11.95
2023-02-11T14:30:15.053Z,15.15
2023-02-11T14:35:37.886Z,12.90
2023-02-11T14:41:22.867Z,11.75
2023-02-11T14:46:25.354Z,11.60
2023-02-11T14:51:38.895Z,11.90
2023-02-11T14:56:42.282Z,12.68
2023-02-11T15:01:47.196Z,13.50
2023-02-11T15:06:51.641Z,12.32
2023-02-11T15:11:54.473Z,12.20
2023-02-11T15:16:58.988Z,12.10
2023-02-11T15:22:00.637Z,11.70
2023-02-11T15:27:04.526Z,11.60
2023-02-11T15:32:21.685Z,11.27
2023-02-11T15:37:26.479Z,12.15
2023-02-11T15:42:40.786Z,13.32
2023-02-11T15:47:51.542Z,10.75
2023-02-11T15:52:53.783Z,12.15
2023-02-11T15:58:00.983Z,11.77
2023-02-11T16:03:03.219Z,11.30
2023-02-11T16:08:21.793Z,12.13
2023-02-11T16:13:23.911Z,11.15
2023-02-11T16:18:39.273Z,13.25
2023-02-11T16:23:42.420Z,12.65
2023-02-11T16:28:44.077Z,13.02
2023-02-11T16:33:45.691Z,11.15
2023-02-11T16:38:47.322Z,11.63
2023-02-11T16:43:48.937Z,13.68
2023-02-11T16:48:50.942Z,14.05
2023-02-11T16:53:52.615Z,13.85
2023-02-11T16:58:54.228Z,17.38
2023-02-11T17:03:55.906Z,18.08
2023-02-11T17:08:57.735Z,16.98
2023-02-11T17:13:59.337Z,15.50
2023-02-11T17:19:01.024Z,18.13
2023-02-11T17:24:02.691Z,16.55
2023-02-11T17:29:08.958Z,15.63
2023-02-11T17:34:10.884Z,14.57
2023-02-11T17:39:12.966Z,13.70
2023-02-11T17:44:16.307Z,14.18
2023-02-11T17:49:18.043Z,14.43
2023-02-11T17:54:20.202Z,14.73
2023-02-11T17:59:21.886Z,11.80
2023-02-11T18:04:23.549Z,14.05
2023-02-11T18:09:26.110Z,14.95
2023-02-11T18:14:27.724Z,14.75
2023-02-11T18:19:32.023Z,13.98
2023-02-11T18:24:33.729Z,13.75
2023-02-11T18:29:35.662Z,12.48
2023-02-11T18:34:37.351Z,13.50
2023-02-11T18:39:39.280Z,16.50
2023-02-11T18:44:40.910Z,18.25
2023-02-11T18:49:42.535Z,15.75
2023-02-11T18:54:44.175Z,15.55
2023-02-11T18:59:45.800Z,15.00
2023-02-11T19:04:47.566Z,15.90
2023-02-11T19:09:49.465Z,16.73
2023-02-11T19:14:51.185Z,18.23
2023-02-11T19:19:53.135Z,19.73
2023-02-11T19:24:54.807Z,18.27
2023-02-11T19:29:56.588Z,14.82
2023-02-11T19:34:58.211Z,14.13
2023-02-11T19:39:59.833Z,14.02
2023-02-11T19:45:01.458Z,14.15
2023-02-11T19:50:04.813Z,13.73
2023-02-11T19:55:07.455Z,11.98
2023-02-11T20:00:11.121Z,12.27
2023-02-11T20:05:15.894Z,12.30
2023-02-11T20:10:18.116Z,12.60
2023-02-11T20:15:19.792Z,13.18
2023-02-11T20:20:21.422Z,17.00
2023-02-11T20:25:23.098Z,12.15
2023-02-11T20:30:24.731Z,14.32
2023-02-11T20:35:26.368Z,11.50
2023-02-11T20:40:28.015Z,12.15
2023-02-11T20:45:29.642Z,11.93
2023-02-11T20:50:31.291Z,12.52
2023-02-11T20:55:37.126Z,13.48
2023-02-11T21:00:38.746Z,13.43
2023-02-11T21:05:40.390Z,12.32
2023-02-11T21:10:42.910Z,15.35
2023-02-11T21:15:44.567Z,14.07
2023-02-11T21:20:46.263Z,12.68
2023-02-11T21:25:47.913Z,13.02
2023-02-11T21:30:50.699Z,11.82
2023-02-11T21:35:59.075Z,11.98
2023-02-11T21:41:04.835Z,13.98
2023-02-11T21:46:09.079Z,12.50
2023-02-11T21:51:24.597Z,12.20
2023-02-11T21:56:29.582Z,12.68
2023-02-11T22:01:33.280Z,13.05
2023-02-11T22:06:35.014Z,14.38
2023-02-11T22:11:37.004Z,13.70
2023-02-11T22:16:38.698Z,14.77
2023-02-11T22:21:40.785Z,14.15
2023-02-11T22:26:42.411Z,13.70
2023-02-11T22:31:44.319Z,14.73
2023-02-11T22:36:46.985Z,14.30
2023-02-11T22:41:49.017Z,13.68
2023-02-11T22:46:51.821Z,13.88
2023-02-11T22:51:53.532Z,17.00
2023-02-11T22:56:55.166Z,15.55
2023-02-11T23:01:56.928Z,12.68
2023-02-11T23:06:58.620Z,15.82
2023-02-11T23:12:00.428Z,14.40
2023-02-11T23:17:02.032Z,16.45
2023-02-11T23:22:03.777Z,13.82
2023-02-11T23:27:05.539Z,14.85
2023-02-11T23:32:07.164Z,16.63
2023-02-11T23:37:08.835Z,14.90
2023-02-11T23:42:12.006Z,17.13
2023-02-11T23:47:13.644Z,17.40
2023-02-11T23:52:15.248Z,16.30
2023-02-11T23:57:16.928Z,18.17
